createdAt,value
2022-12-25T00:02:27.246Z,23.15
2022-12-25T00:04:54.206Z,22.58
2022-12-25T00:07:21.057Z,39.75
2022-12-25T00:09:47.908Z,22.55
2022-12-25T00:12:14.731Z,32.63
2022-12-25T00:14:41.668Z,24.73
2022-12-25T00:17:08.562Z,20.50
2022-12-25T00:19:35.393Z,23.10
2022-12-25T00:22:02.288Z,23.33
2022-12-25T00:24:29.205Z,28.42
2022-12-25T00:26:56.076Z,31.00
2022-12-25T00:29:23.266Z,27.42
2022-12-25T00:31:50.086Z,23.13
2022-12-25T00:34:16.988Z,22.08
2022-12-25T00:36:43.955Z,24.95
2022-12-25T00:39:10.860Z,25.35
2022-12-25T00:41:56.330Z,23.88
2022-12-25T00:44:23.255Z,27.90
2022-12-25T00:46:50.179Z,24.10
2022-12-25T00:49:17.122Z,29.92
2022-12-25T00:51:44.153Z,23.77
2022-12-25T00:54:11.039Z,20.58
2022-12-25T00:56:37.896Z,25.70
2022-12-25T00:59:04.752Z,24.80
2022-12-25T01:01:31.788Z,21.73
2022-12-25T01:03:59.129Z,19.80
2022-12-25T01:06:26.848Z,28.23
2022-12-25T01:09:12.390Z,20.70
2022-12-25T01:11:39.330Z,18.48
2022-12-25T01:14:06.593Z,31.48
2022-12-25T01:16:33.566Z,17.38
2022-12-25T01:19:00.513Z,16.95
2022-12-25T01:21:28.062Z,18.92
2022-12-25T01:23:55.064Z,22.67
2022-12-25T01:26:23.753Z,18.90
2022-12-25T01:28:51.725Z,20.30
2022-12-25T01:31:21.468Z,25.60
2022-12-25T01:33:49.208Z,20.73
2022-12-25T01:36:22.176Z,20.08
2022-12-25T01:38:49.699Z,17.35
2022-12-25T01:41:18.582Z,33.95
2022-12-25T01:44:14.538Z,17.42
2022-12-25T01:46:41.903Z,18.10
2022-12-25T01:49:29.562Z,39.08
2022-12-25T01:52:01.671Z,21.60
2022-12-25T01:54:51.552Z,16.08
2022-12-25T01:57:39.283Z,21.05
2022-12-25T02:00:08.519Z,19.88
2022-12-25T02:02:36.002Z,18.25
2022-12-25T02:05:30.662Z,47.70
2022-12-25T02:08:01.953Z,21.27
2022-12-25T02:10:29.123Z,22.05
2022-12-25T02:12:56.243Z,26.10
2022-12-25T02:15:30.022Z,25.67
2022-12-25T02:18:02.664Z,30.98
2022-12-25T02:21:00.713Z,18.55
2022-12-25T02:23:49.095Z,17.20
2022-12-25T02:26:21.056Z,15.65
2022-12-25T02:29:28.460Z,33.03
2022-12-25T02:32:07.903Z,18.25
2022-12-25T02:34:44.255Z,21.37
2022-12-25T02:37:14.852Z,22.73
2022-12-25T02:39:58.567Z,27.30
2022-12-25T02:42:48.168Z,17.83
2022-12-25T02:45:38.834Z,28.02
2022-12-25T02:48:25.297Z,16.08
2022-12-25T02:51:12.456Z,21.98
2022-12-25T02:53:59.674Z,30.98
2022-12-25T02:56:48.095Z,16.17
2022-12-25T02:59:35.531Z,30.38
2022-12-25T03:02:23.106Z,21.13
2022-12-25T03:05:11.427Z,29.08
2022-12-25T03:07:41.071Z,18.58
2022-12-25T03:10:29.426Z,26.90
2022-12-25T03:13:16.353Z,24.10
2022-12-25T03:16:01.944Z,20.05
2022-12-25T03:18:31.136Z,24.33
2022-12-25T03:21:17.948Z,24.88
2022-12-25T03:24:08.431Z,27.88
2022-12-25T03:26:53.881Z,22.77
2022-12-25T03:29:44.374Z,26.95
2022-12-25T03:32:17.170Z,19.38
2022-12-25T03:35:16.452Z,25.45
2022-12-25T03:38:10.545Z,48.80
2022-12-25T03:40:59.001Z,26.50
2022-12-25T03:44:19.190Z,21.83
2022-12-25T03:47:11.099Z,17.38
2022-12-25T03:50:05.017Z,27.27
2022-12-25T03:52:52.023Z,18.35
2022-12-25T03:55:38.467Z,26.85
2022-12-25T03:58:24.301Z,25.35
2022-12-25T04:01:09.540Z,31.13
2022-12-25T04:03:55.077Z,35.30
2022-12-25T04:06:40.576Z,30.33
2022-12-25T04:09:25.956Z,39.83
2022-12-25T04:12:11.410Z,31.42
2022-12-25T04:14:56.751Z,16.73
2022-12-25T04:17:42.046Z,22.98
2022-12-25T04:20:27.929Z,21.70
2022-12-25T04:23:13.192Z,21.63
2022-12-25T04:25:58.795Z,30.05
2022-12-25T04:28:43.999Z,26.40
2022-12-25T04:31:29.530Z,32.22
2022-12-25T04:34:14.828Z,31.35
2022-12-25T04:36:41.828Z,21.25
2022-12-25T04:39:10.124Z,34.25
2022-12-25T04:41:37.032Z,29.98
2022-12-25T04:44:04.096Z,21.77
2022-12-25T04:46:31.058Z,34.63
2022-12-25T04:48:57.963Z,29.67
2022-12-25T04:51:26.025Z,34.83
2022-12-25T04:53:53.600Z,26.15
2022-12-25T04:56:21.517Z,34.13
2022-12-25T04:58:48.857Z,26.35
2022-12-25T05:01:16.682Z,29.38
2022-12-25T05:03:43.801Z,32.47
2022-12-25T05:06:10.733Z,24.13
2022-12-25T05:08:37.672Z,35.28
2022-12-25T05:11:10.779Z,25.85
2022-12-25T05:13:38.640Z,32.20
2022-12-25T05:16:12.805Z,29.80
2022-12-25T05:18:39.848Z,23.70
2022-12-25T05:21:07.872Z,38.72
2022-12-25T05:23:34.908Z,31.30
2022-12-25T05:26:06.560Z,30.77
2022-12-25T05:28:36.787Z,24.60
2022-12-25T05:31:03.705Z,25.25
2022-12-25T05:33:30.579Z,34.92
2022-12-25T05:35:57.437Z,33.25
2022-12-25T05:38:24.280Z,37.78
2022-12-25T05:40:51.749Z,24.05
2022-12-25T05:43:19.638Z,29.73
2022-12-25T05:45:46.513Z,38.60
2022-12-25T05:48:13.561Z,35.08
2022-12-25T05:50:40.432Z,40.40
2022-12-25T05:53:09.538Z,17.83
2022-12-25T05:55:37.762Z,18.95
2022-12-25T05:58:06.243Z,33.17
2022-12-25T06:00:33.623Z,20.75
2022-12-25T06:03:00.926Z,28.80
2022-12-25T06:05:27.910Z,40.80
2022-12-25T06:07:54.774Z,17.33
2022-12-25T06:10:21.734Z,20.02
2022-12-25T06:12:48.838Z,17.48
2022-12-25T06:15:15.937Z,38.25
2022-12-25T06:17:42.755Z,41.80
2022-12-25T06:20:10.248Z,22.58
2022-12-25T06:22:37.154Z,21.10
2022-12-25T06:25:04.274Z,27.40
2022-12-25T06:27:31.163Z,35.05
2022-12-25T06:29:58.007Z,27.30
2022-12-25T06:32:24.831Z,26.58
2022-12-25T06:34:51.838Z,21.00
2022-12-25T06:37:18.793Z,26.55
2022-12-25T06:39:47.510Z,21.48
2022-12-25T06:42:14.319Z,28.27
2022-12-25T06:44:41.132Z,17.23
2022-12-25T06:47:07.958Z,23.30
2022-12-25T06:49:34.785Z,27.40
2022-12-25T06:52:01.695Z,23.58
2022-12-25T06:54:28.610Z,32.95
2022-12-25T06:56:55.488Z,27.55
2022-12-25T06:59:22.417Z,27.13
2022-12-25T07:01:50.403Z,27.50
2022-12-25T07:04:23.388Z,25.05
2022-12-25T07:06:50.229Z,20.08
2022-12-25T07:09:17.284Z,21.63
2022-12-25T07:11:44.258Z,25.65
2022-12-25T07:14:24.533Z,13.60
2022-12-25T07:16:52.079Z,27.08
2022-12-25T07:19:19.373Z,27.10
2022-12-25T07:21:46.336Z,25.48
2022-12-25T07:24:20.833Z,26.85
2022-12-25T07:26:47.866Z,20.80
2022-12-25T07:29:14.780Z,23.83
2022-12-25T07:31:41.792Z,25.25
2022-12-25T07:34:08.951Z,16.95
2022-12-25T07:36:35.829Z,20.33
2022-12-25T07:39:02.755Z,13.48
2022-12-25T07:41:29.721Z,23.05
2022-12-25T07:43:56.550Z,14.88
2022-12-25T07:46:23.589Z,20.40
2022-12-25T07:48:50.512Z,24.30
2022-12-25T07:51:17.403Z,30.67
2022-12-25T07:53:44.262Z,26.70
2022-12-25T07:56:14.370Z,23.70
2022-12-25T07:58:41.838Z,26.98
2022-12-25T08:01:19.532Z,28.30
2022-12-25T08:03:58.279Z,25.00
2022-12-25T08:06:29.926Z,20.67
2022-12-25T08:09:12.770Z,26.63
2022-12-25T08:11:40.166Z,28.05
2022-12-25T08:14:08.610Z,15.88
2022-12-25T08:16:36.125Z,27.45
2022-12-25T08:19:03.172Z,26.75
2022-12-25T08:21:30.024Z,28.13
2022-12-25T08:23:57.238Z,19.25
2022-12-25T08:26:24.219Z,22.45
2022-12-25T08:28:51.234Z,19.17
2022-12-25T08:31:29.756Z,19.75
2022-12-25T08:33:58.620Z,23.02
2022-12-25T08:36:25.723Z,23.95
2022-12-25T08:38:57.029Z,22.13
2022-12-25T08:41:28.073Z,15.90
2022-12-25T08:43:55.105Z,24.75
2022-12-25T08:46:22.051Z,28.33
2022-12-25T08:48:50.211Z,22.08
2022-12-25T08:51:21.101Z,22.38
2022-12-25T08:53:50.447Z,23.77
2022-12-25T08:56:19.059Z,19.38
2022-12-25T08:58:46.226Z,20.00
2022-12-25T09:01:13.617Z,21.42
2022-12-25T09:03:40.752Z,19.40
2022-12-25T09:06:13.299Z,23.15
2022-12-25T09:08:47.741Z,21.98
2022-12-25T09:11:17.156Z,17.42
2022-12-25T09:13:44.137Z,19.67
2022-12-25T09:16:13.623Z,15.98
2022-12-25T09:21:10.771Z,18.98
2022-12-25T09:23:37.897Z,20.05
2022-12-25T09:26:07.414Z,18.45
2022-12-25T09:31:02.319Z,18.67
2022-12-25T09:33:29.271Z,14.98
2022-12-25T09:35:57.817Z,17.00
2022-12-25T09:38:25.381Z,21.43
2022-12-25T09:41:01.794Z,14.77
2022-12-25T09:43:31.659Z,10.65
2022-12-25T09:46:00.334Z,18.25
2022-12-25T09:48:30.607Z,23.02
2022-12-25T09:50:59.990Z,14.23
2022-12-25T09:53:31.103Z,14.32
2022-12-25T09:56:10.879Z,17.23
2022-12-25T09:58:38.147Z,17.88
2022-12-25T10:01:33.370Z,20.40
2022-12-25T10:04:39.194Z,20.38
2022-12-25T10:07:43.401Z,17.52
2022-12-25T10:10:22.580Z,18.08
2022-12-25T10:13:01.504Z,19.65
2022-12-25T10:15:58.513Z,20.58
2022-12-25T10:18:35.228Z,17.77
2022-12-25T10:21:10.955Z,19.17
2022-12-25T10:23:42.863Z,19.80
2022-12-25T10:26:22.225Z,17.67
2022-12-25T10:29:14.517Z,19.03
2022-12-25T10:31:45.204Z,15.80
2022-12-25T10:34:14.003Z,17.50
2022-12-25T10:36:44.581Z,18.70
2022-12-25T10:39:23.813Z,13.77
2022-12-25T10:42:09.462Z,15.60
2022-12-25T10:44:36.438Z,15.60
2022-12-25T10:47:04.708Z,19.15
2022-12-25T10:49:38.425Z,20.08
2022-12-25T10:52:20.070Z,18.13
2022-12-25T10:54:47.009Z,18.75
2022-12-25T10:57:19.804Z,17.63
2022-12-25T10:59:52.449Z,14.48
2022-12-25T11:02:45.420Z,13.55
2022-12-25T11:05:23.346Z,13.63
2022-12-25T11:07:56.161Z,19.42
2022-12-25T11:10:26.065Z,20.75
2022-12-25T11:12:54.029Z,11.98
2022-12-25T11:15:36.733Z,16.83
2022-12-25T11:18:25.072Z,17.75
2022-12-25T11:21:02.282Z,18.95
2022-12-25T11:23:31.269Z,24.30
2022-12-25T11:26:06.964Z,18.10
2022-12-25T11:28:36.248Z,12.02
2022-12-25T11:31:08.577Z,16.75
2022-12-25T11:33:42.141Z,15.02
2022-12-25T11:36:32.608Z,17.63
2022-12-25T11:39:16.325Z,15.82
2022-12-25T11:41:44.122Z,18.48
2022-12-25T11:44:43.992Z,19.50
2022-12-25T11:47:17.729Z,12.93
2022-12-25T11:49:54.905Z,17.15
2022-12-25T11:52:25.967Z,16.85
2022-12-25T11:55:01.997Z,15.57
2022-12-25T11:57:31.255Z,13.35
2022-12-25T12:00:06.540Z,14.95
2022-12-25T12:02:53.748Z,16.77
2022-12-25T12:05:29.558Z,12.40
2022-12-25T12:08:04.747Z,13.07
2022-12-25T12:10:42.485Z,14.50
2022-12-25T12:13:28.708Z,16.25
2022-12-25T12:15:55.791Z,16.45
2022-12-25T12:18:30.351Z,13.77
2022-12-25T12:20:58.712Z,16.48
2022-12-25T12:23:26.900Z,20.30
2022-12-25T12:25:54.031Z,16.00
2022-12-25T12:28:24.981Z,15.30
2022-12-25T12:31:07.142Z,15.15
2022-12-25T12:33:39.186Z,11.57
2022-12-25T12:36:07.144Z,13.95
2022-12-25T12:38:35.351Z,14.60
2022-12-25T12:41:05.583Z,12.13
2022-12-25T12:43:39.776Z,11.05
2022-12-25T12:46:06.802Z,17.33
2022-12-25T12:48:45.683Z,17.63
2022-12-25T12:51:29.114Z,15.25
2022-12-25T12:54:21.007Z,17.17
2022-12-25T12:57:05.203Z,20.25
2022-12-25T12:59:44.703Z,17.08
2022-12-25T13:02:49.201Z,10.50
2022-12-25T13:05:20.285Z,16.25
2022-12-25T13:08:02.299Z,19.50
2022-12-25T13:10:44.137Z,21.15
2022-12-25T13:13:30.435Z,13.52
2022-12-25T13:15:58.055Z,36.20
2022-12-25T13:18:24.963Z,96.32
2022-12-25T13:20:59.642Z,62.97
2022-12-25T13:23:37.504Z,68.80
2022-12-25T13:26:06.019Z,30.52
2022-12-25T13:28:36.940Z,17.97
2022-12-25T13:31:19.172Z,17.52
2022-12-25T13:33:50.508Z,22.58
2022-12-25T13:36:17.775Z,22.85
2022-12-25T13:38:50.760Z,19.27
2022-12-25T13:41:41.831Z,23.83
2022-12-25T13:46:41.215Z,19.35
2022-12-25T13:49:16.141Z,20.02
2022-12-25T13:51:43.294Z,25.55
2022-12-25T13:54:13.155Z,18.08
2022-12-25T13:56:52.095Z,24.45
2022-12-25T13:59:24.668Z,23.13
2022-12-25T14:01:54.072Z,18.15
2022-12-25T14:04:23.955Z,20.00
2022-12-25T14:06:52.348Z,24.38
2022-12-25T14:09:20.103Z,16.65
2022-12-25T14:11:51.211Z,17.45
2022-12-25T14:14:26.009Z,19.50
2022-12-25T14:16:56.908Z,22.73
2022-12-25T14:19:32.389Z,20.33
2022-12-25T14:22:01.078Z,14.98
2022-12-25T14:24:30.017Z,20.80
2022-12-25T14:26:59.340Z,23.85
2022-12-25T14:29:30.024Z,20.10
2022-12-25T14:31:58.833Z,17.83
2022-12-25T14:34:34.221Z,19.13
2022-12-25T14:37:03.424Z,18.88
2022-12-25T14:39:30.308Z,22.50
2022-12-25T14:41:57.880Z,15.00
2022-12-25T14:44:40.104Z,23.17
2022-12-25T14:47:18.692Z,15.85
2022-12-25T14:49:46.391Z,26.67
2022-12-25T14:52:29.822Z,29.73
2022-12-25T14:55:01.201Z,14.38
2022-12-25T14:57:35.986Z,18.13
2022-12-25T15:00:07.981Z,27.55
2022-12-25T15:02:42.733Z,12.43
2022-12-25T15:05:29.570Z,19.38
2022-12-25T15:08:11.648Z,14.10
2022-12-25T15:13:28.331Z,18.02
2022-12-25T15:16:08.686Z,21.13
2022-12-25T15:18:41.415Z,30.27
2022-12-25T15:21:24.690Z,25.10
2022-12-25T15:23:53.222Z,31.38
2022-12-25T15:26:20.134Z,24.23
2022-12-25T15:28:47.048Z,30.00
2022-12-25T15:31:29.223Z,22.45
2022-12-25T15:33:59.520Z,13.43
2022-12-25T15:36:27.572Z,16.45
2022-12-25T15:38:55.001Z,23.30
2022-12-25T15:41:50.009Z,30.27
2022-12-25T15:44:17.702Z,16.63
2022-12-25T15:46:46.035Z,29.20
2022-12-25T15:49:14.358Z,24.20
2022-12-25T15:51:42.373Z,32.35
2022-12-25T15:54:09.913Z,13.90
2022-12-25T15:56:44.525Z,22.45
2022-12-25T15:59:16.896Z,20.73
2022-12-25T16:01:50.768Z,24.70
2022-12-25T16:04:18.361Z,15.98
2022-12-25T16:06:45.528Z,32.65
2022-12-25T16:09:13.532Z,14.02
2022-12-25T16:11:40.744Z,22.20
2022-12-25T16:14:08.059Z,16.05
2022-12-25T16:16:35.334Z,30.73
2022-12-25T16:19:02.534Z,16.00
2022-12-25T16:21:51.556Z,35.53
2022-12-25T16:24:18.378Z,33.75
2022-12-25T16:26:45.272Z,16.70
2022-12-25T16:29:12.154Z,12.32
2022-12-25T16:31:39.998Z,14.23
2022-12-25T16:34:07.702Z,15.63
2022-12-25T16:36:34.952Z,28.60
2022-12-25T16:39:02.684Z,24.90
2022-12-25T16:41:29.520Z,29.20
2022-12-25T16:43:56.347Z,13.95
2022-12-25T16:46:23.633Z,13.43
2022-12-25T16:48:50.721Z,30.98
2022-12-25T16:51:20.304Z,31.08
2022-12-25T16:53:47.983Z,16.40
2022-12-25T16:56:17.710Z,13.38
2022-12-25T16:58:48.745Z,11.20
2022-12-25T17:01:18.320Z,35.85
2022-12-25T17:03:46.113Z,17.13
2022-12-25T17:06:24.857Z,36.65
2022-12-25T17:08:53.062Z,18.08
2022-12-25T17:11:24.293Z,14.20
2022-12-25T17:13:51.153Z,15.82
2022-12-25T17:16:27.633Z,12.27
2022-12-25T17:18:56.054Z,30.00
2022-12-25T17:21:26.528Z,18.02
2022-12-25T17:23:59.615Z,23.63
2022-12-25T17:26:29.135Z,28.45
2022-12-25T17:28:56.389Z,14.32
2022-12-25T17:31:23.571Z,12.55
2022-12-25T17:33:50.680Z,12.13
2022-12-25T17:36:19.850Z,12.57
2022-12-25T17:38:47.631Z,11.77
2022-12-25T17:41:16.238Z,11.77
2022-12-25T17:43:45.759Z,22.53
2022-12-25T17:46:19.078Z,24.55
2022-12-25T17:48:46.578Z,11.93
2022-12-25T17:58:44.357Z,31.50
2022-12-25T18:01:16.630Z,15.23
2022-12-25T18:04:02.111Z,54.05
2022-12-25T18:06:29.715Z,27.98
2022-12-25T18:08:57.629Z,28.17
2022-12-25T18:11:33.011Z,14.85
2022-12-25T18:14:05.128Z,56.95
2022-12-25T18:16:34.960Z,57.63
2022-12-25T18:19:02.329Z,68.10
2022-12-25T18:21:29.685Z,83.82
2022-12-25T18:23:56.680Z,56.33
2022-12-25T18:26:25.042Z,76.80
2022-12-25T18:28:51.993Z,79.78
2022-12-25T18:31:30.331Z,63.05
2022-12-25T18:33:59.783Z,77.10
2022-12-25T18:36:27.803Z,77.18
2022-12-25T18:38:55.457Z,66.90
2022-12-25T18:41:22.833Z,55.67
2022-12-25T18:43:52.779Z,18.00
2022-12-25T18:46:24.714Z,122.32
2022-12-25T18:48:52.927Z,109.97
2022-12-25T18:51:19.871Z,28.55
2022-12-25T18:53:46.825Z,18.83
2022-12-25T18:56:17.211Z,42.85
2022-12-25T18:58:44.875Z,30.92
2022-12-25T19:01:20.890Z,50.00
2022-12-25T19:03:49.240Z,27.88
2022-12-25T19:06:26.993Z,21.13
2022-12-25T19:08:55.663Z,22.75
2022-12-25T19:11:23.060Z,23.75
2022-12-25T19:13:49.934Z,103.15
2022-12-25T19:16:16.934Z,24.35
2022-12-25T19:18:43.992Z,25.63
2022-12-25T19:21:11.201Z,142.77
2022-12-25T19:23:38.627Z,51.45
2022-12-25T19:26:07.401Z,36.15
2022-12-25T19:28:35.020Z,105.90
2022-12-25T19:31:02.344Z,24.65
2022-12-25T19:33:31.639Z,111.85
2022-12-25T19:36:03.588Z,25.85
2022-12-25T19:38:30.579Z,94.88
2022-12-25T19:41:00.725Z,154.02
2022-12-25T19:43:32.550Z,79.47
2022-12-25T19:46:00.405Z,83.30
2022-12-25T19:48:28.107Z,71.95
2022-12-25T19:50:55.043Z,203.68
2022-12-25T19:53:23.821Z,90.18
2022-12-25T19:55:54.448Z,187.52
2022-12-25T19:58:22.711Z,29.13
2022-12-25T20:01:00.349Z,46.90
2022-12-25T20:03:28.208Z,27.40
2022-12-25T20:05:55.171Z,31.42
2022-12-25T20:08:22.355Z,39.97
2022-12-25T20:10:49.615Z,93.97
2022-12-25T20:13:17.154Z,402.80
2022-12-25T20:15:44.035Z,536.25
2022-12-25T20:18:10.852Z,330.77
2022-12-25T20:20:37.893Z,365.02
2022-12-25T20:23:05.017Z,270.02
2022-12-25T20:25:31.981Z,35.95
2022-12-25T20:27:58.859Z,69.38
2022-12-25T20:30:25.876Z,55.75
2022-12-25T20:32:52.722Z,175.73
2022-12-25T20:35:19.661Z,294.05
2022-12-25T20:37:46.585Z,275.95
2022-12-25T20:40:13.670Z,174.75
2022-12-25T20:42:40.527Z,109.18
2022-12-25T20:45:07.770Z,123.18
2022-12-25T20:47:35.206Z,448.23
2022-12-25T20:50:02.235Z,160.45
2022-12-25T20:52:29.113Z,290.13
2022-12-25T20:54:55.948Z,138.38
2022-12-25T20:57:22.955Z,234.43
2022-12-25T20:59:49.946Z,28.10
2022-12-25T21:02:33.341Z,171.00
2022-12-25T21:05:02.305Z,553.50
2022-12-25T21:07:29.208Z,169.85
2022-12-25T21:09:56.127Z,399.90
2022-12-25T21:12:23.013Z,467.73
2022-12-25T21:14:49.874Z,435.77
2022-12-25T21:17:16.813Z,196.77
2022-12-25T21:19:43.767Z,275.92
2022-12-25T21:22:10.660Z,33.08
2022-12-25T21:24:37.538Z,268.13
2022-12-25T21:27:04.484Z,159.32
2022-12-25T21:29:31.473Z,25.98
2022-12-25T21:32:16.871Z,43.65
2022-12-25T21:34:43.703Z,227.40
2022-12-25T21:37:10.606Z,194.50
2022-12-25T21:39:37.574Z,70.75
2022-12-25T21:42:04.701Z,47.00
2022-12-25T21:44:36.096Z,94.15
2022-12-25T21:47:03.311Z,108.15
2022-12-25T21:49:48.727Z,22.52
2022-12-25T21:52:15.605Z,29.25
2022-12-25T21:54:42.677Z,34.05
2022-12-25T21:57:09.572Z,21.10
2022-12-25T21:59:36.553Z,23.05
2022-12-25T22:02:11.460Z,23.02
2022-12-25T22:04:38.973Z,68.80
2022-12-25T22:07:17.960Z,71.00
2022-12-25T22:09:47.139Z,60.75
2022-12-25T22:12:34.789Z,79.22
2022-12-25T22:15:06.110Z,51.33
2022-12-25T22:17:57.719Z,47.95
2022-12-25T22:20:34.592Z,25.17
2022-12-25T22:23:02.107Z,97.32
2022-12-25T22:25:29.089Z,62.45
2022-12-25T22:27:56.015Z,57.10
2022-12-25T22:30:27.911Z,42.65
2022-12-25T22:32:55.494Z,75.95
2022-12-25T22:35:22.962Z,21.10
2022-12-25T22:37:50.103Z,64.60
2022-12-25T22:40:19.761Z,58.50
2022-12-25T22:42:47.042Z,74.72
2022-12-25T22:45:14.348Z,78.50
2022-12-25T22:47:41.876Z,74.38
2022-12-25T22:50:09.842Z,54.85
2022-12-25T22:52:37.239Z,48.85
2022-12-25T22:55:05.650Z,59.30
2022-12-25T22:57:32.494Z,62.60
2022-12-25T22:59:59.579Z,55.70
2022-12-25T23:02:26.861Z,59.47
2022-12-25T23:04:53.998Z,69.43
2022-12-25T23:07:20.986Z,47.95
2022-12-25T23:09:47.893Z,75.60
2022-12-25T23:12:33.314Z,46.17
2022-12-25T23:15:00.495Z,67.57
2022-12-25T23:17:46.074Z,80.40
2022-12-25T23:20:33.341Z,60.05
2022-12-25T23:23:18.773Z,80.95
2022-12-25T23:26:04.559Z,94.47
2022-12-25T23:28:49.817Z,87.60
2022-12-25T23:31:16.849Z,83.32
2022-12-25T23:33:43.947Z,49.95
2022-12-25T23:36:10.925Z,47.60
2022-12-25T23:38:37.820Z,51.47
2022-12-25T23:41:04.723Z,77.75
2022-12-25T23:43:31.850Z,42.25
2022-12-25T23:45:58.690Z,66.00
2022-12-25T23:48:25.602Z,62.63
2022-12-25T23:50:52.511Z,29.08
2022-12-25T23:53:19.424Z,27.45
2022-12-25T23:55:51.528Z,38.95
2022-12-25T23:58:22.023Z,79.97
